Time;durP1;ratioP1;P1;durP2;ratioP2;P2;SDS_P1;SDS_P2;PMS_P1;PMS_P2;Temp;Humidity;BMP_temperature;BMP_pressure;BME280_temperature;BME280_humidity;BME280_pressure;Samples;Min_cycle;Max_cycle;Signal;HPM_P1;HPM_P2
2023/09/17 00:00:11;;;;;;;17.30;10.63;;;;;;;;;;10484569;28;20044;-81
2023/09/17 00:05:12;;;;;;;18.65;11.10;;;;;;;;;;10481813;28;20048;-86
2023/09/17 00:10:13;;;;;;;20.75;12.23;;;;;;;;;;10466197;28;20116;-82
2023/09/17 00:15:14;;;;;;;19.05;10.82;;;;;;;;;;10483649;28;20032;-86
2023/09/17 00:20:15;;;;;;;18.23;12.25;;;;;;;;;;10483216;28;20248;-82
2023/09/17 00:25:17;;;;;;;17.52;11.65;;;;;;;;;;10484919;28;20040;-82
2023/09/17 00:30:18;;;;;;;18.50;10.65;;;;;;;;;;10481405;28;20385;-83
2023/09/17 00:35:19;;;;;;;19.23;11.07;;;;;;;;;;10483582;28;20025;-81
2023/09/17 00:40:28;;;;;;;17.67;11.80;;;;;;;;;;10485115;28;20040;-81
2023/09/17 00:45:30;;;;;;;15.23;9.77;;;;;;;;;;10483625;28;20025;-83
2023/09/17 00:50:32;;;;;;;18.88;12.73;;;;;;;;;;10483135;28;20100;-81
2023/09/17 00:55:34;;;;;;;14.80;9.65;;;;;;;;;;10464381;28;20064;-82
2023/09/17 01:00:38;;;;;;;18.33;10.90;;;;;;;;;;10482882;28;20071;-82
2023/09/17 01:05:43;;;;;;;13.90;9.63;;;;;;;;;;10480259;28;20063;-82
2023/09/17 01:10:46;;;;;;;19.70;11.82;;;;;;;;;;10480099;28;20035;-80
2023/09/17 01:15:47;;;;;;;12.27;8.50;;;;;;;;;;10481078;28;20021;-82
2023/09/17 01:21:00;;;;;;;13.63;9.30;;;;;;;;;;10482506;28;20040;-84
2023/09/17 01:26:08;;;;;;;13.52;9.40;;;;;;;;;;10480289;28;20025;-82
2023/09/17 01:31:09;;;;;;;17.85;11.40;;;;;;;;;;10481652;28;20127;-82
2023/09/17 01:36:27;;;;;;;20.75;13.43;;;;;;;;;;10478355;28;20060;-82
2023/09/17 01:41:28;;;;;;;14.50;9.27;;;;;;;;;;10479517;28;20036;-82
2023/09/17 01:46:30;;;;;;;14.93;10.20;;;;;;;;;;10480070;28;20024;-83
2023/09/17 01:51:32;;;;;;;17.20;11.98;;;;;;;;;;10481203;28;20107;-81
2023/09/17 01:56:41;;;;;;;21.05;13.25;;;;;;;;;;10481935;28;20031;-82
2023/09/17 02:01:43;;;;;;;23.92;14.38;;;;;;;;;;10477816;28;20098;-81
2023/09/17 02:06:45;;;;;;;25.88;15.60;;;;;;;;;;10481977;28;20043;-84
2023/09/17 02:11:46;;;;;;;25.63;15.90;;;;;;;;;;10479677;28;20028;-82
2023/09/17 02:16:47;;;;;;;29.80;16.33;;;;;;;;;;10480914;28;20036;-80
2023/09/17 02:21:48;;;;;;;24.02;14.52;;;;;;;;;;10479970;28;20416;-80
2023/09/17 02:26:49;;;;;;;26.13;17.42;;;;;;;;;;10480792;28;20044;-81
2023/09/17 02:31:51;;;;;;;23.42;13.68;;;;;;;;;;10480685;28;20387;-83
2023/09/17 02:36:52;;;;;;;21.67;14.57;;;;;;;;;;10479932;28;20025;-83
2023/09/17 02:41:52;;;;;;;18.02;11.05;;;;;;;;;;10478881;28;20028;-82
2023/09/17 02:46:53;;;;;;;19.42;13.18;;;;;;;;;;10479960;28;20033;-81
2023/09/17 02:51:55;;;;;;;23.70;14.05;;;;;;;;;;10479502;28;20031;-83
2023/09/17 02:56:56;;;;;;;20.30;12.40;;;;;;;;;;10479022;28;20036;-82
2023/09/17 03:01:57;;;;;;;20.10;13.30;;;;;;;;;;10487097;28;20079;-82
2023/09/17 03:06:58;;;;;;;14.80;10.35;;;;;;;;;;10488276;28;20016;-81
2023/09/17 03:11:59;;;;;;;24.73;15.45;;;;;;;;;;10468833;28;20478;-82
2023/09/17 03:17:03;;;;;;;22.55;14.82;;;;;;;;;;10486977;28;20047;-83
2023/09/17 03:22:04;;;;;;;26.30;15.73;;;;;;;;;;10485908;28;20032;-82
2023/09/17 03:27:05;;;;;;;25.42;16.52;;;;;;;;;;10469136;28;20086;-82
2023/09/17 03:32:06;;;;;;;19.98;14.55;;;;;;;;;;10485712;28;20036;-82
2023/09/17 03:37:07;;;;;;;23.13;15.40;;;;;;;;;;10485080;28;20033;-83
2023/09/17 03:42:08;;;;;;;24.27;14.65;;;;;;;;;;10486440;28;20064;-82
2023/09/17 03:47:09;;;;;;;13.23;9.65;;;;;;;;;;10486946;28;20028;-82
2023/09/17 03:52:10;;;;;;;19.95;14.50;;;;;;;;;;10484458;28;20031;-82
2023/09/17 03:57:11;;;;;;;17.58;13.18;;;;;;;;;;10484026;28;20553;-83
2023/09/17 04:02:12;;;;;;;23.13;14.75;;;;;;;;;;10484096;28;20052;-81
2023/09/17 04:07:13;;;;;;;23.55;15.88;;;;;;;;;;10483643;28;20039;-82
2023/09/17 04:12:14;;;;;;;24.83;16.38;;;;;;;;;;10484733;28;20036;-81
2023/09/17 04:17:15;;;;;;;21.48;13.90;;;;;;;;;;10485855;28;20032;-83
2023/09/17 04:22:17;;;;;;;23.40;15.48;;;;;;;;;;10467023;28;20052;-89
2023/09/17 04:27:18;;;;;;;23.13;15.95;;;;;;;;;;10482271;28;20033;-83
2023/09/17 04:32:19;;;;;;;20.40;14.43;;;;;;;;;;10486601;28;20024;-82
2023/09/17 04:37:21;;;;;;;22.58;15.77;;;;;;;;;;10486694;28;20431;-84
2023/09/17 04:42:22;;;;;;;12.38;8.52;;;;;;;;;;10486929;28;20036;-82
2023/09/17 04:47:23;;;;;;;23.20;15.90;;;;;;;;;;10488026;28;20426;-85
2023/09/17 04:52:24;;;;;;;15.35;11.05;;;;;;;;;;10484234;28;20028;-86
2023/09/17 04:57:25;;;;;;;12.98;9.32;;;;;;;;;;10484915;28;20064;-82
2023/09/17 05:02:26;;;;;;;14.98;11.10;;;;;;;;;;10481700;28;20865;-82
2023/09/17 05:07:27;;;;;;;29.55;16.38;;;;;;;;;;10485004;28;20063;-83
2023/09/17 05:12:28;;;;;;;27.40;15.95;;;;;;;;;;10484647;28;20029;-83
2023/09/17 05:17:29;;;;;;;28.30;18.10;;;;;;;;;;10483706;28;20555;-82
2023/09/17 05:22:31;;;;;;;37.30;20.65;;;;;;;;;;10479732;28;20047;-83
2023/09/17 05:27:32;;;;;;;32.60;19.42;;;;;;;;;;10485593;28;20032;-85
2023/09/17 05:32:33;;;;;;;21.70;15.73;;;;;;;;;;10459799;28;20383;-84
2023/09/17 05:37:34;;;;;;;41.58;29.58;;;;;;;;;;10485131;28;20036;-83
2023/09/17 05:42:35;;;;;;;49.78;39.70;;;;;;;;;;10483902;28;20051;-83
2023/09/17 05:47:36;;;;;;;28.48;24.65;;;;;;;;;;10482822;28;20048;-83
2023/09/17 05:52:38;;;;;;;25.60;19.30;;;;;;;;;;10479798;28;20028;-82
2023/09/17 05:57:39;;;;;;;23.40;17.92;;;;;;;;;;10481519;28;20021;-82
2023/09/17 06:02:40;;;;;;;23.65;17.35;;;;;;;;;;10482952;28;20052;-82
2023/09/17 06:07:41;;;;;;;24.05;17.02;;;;;;;;;;10481700;28;20457;-80
2023/09/17 06:12:42;;;;;;;25.42;18.08;;;;;;;;;;10483224;28;20070;-83
2023/09/17 06:17:43;;;;;;;22.08;15.90;;;;;;;;;;10478309;28;20032;-82
2023/09/17 06:22:45;;;;;;;20.42;14.73;;;;;;;;;;10475796;28;20038;-83
2023/09/17 06:27:46;;;;;;;26.80;19.23;;;;;;;;;;10476622;28;20036;-84
2023/09/17 06:32:47;;;;;;;23.77;16.95;;;;;;;;;;10486969;28;20042;-84
2023/09/17 06:37:49;;;;;;;20.40;14.90;;;;;;;;;;10483344;28;20424;-83
2023/09/17 06:42:50;;;;;;;18.70;13.55;;;;;;;;;;10470860;28;20522;-83
2023/09/17 06:47:51;;;;;;;14.55;11.25;;;;;;;;;;10469927;28;20044;-84
2023/09/17 06:52:52;;;;;;;14.23;11.50;;;;;;;;;;10488126;28;20477;-84
2023/09/17 06:57:53;;;;;;;16.10;11.60;;;;;;;;;;10475857;28;20781;-83
2023/09/17 07:02:54;;;;;;;15.93;10.90;;;;;;;;;;10464794;28;20680;-82
2023/09/17 07:07:55;;;;;;;14.32;10.43;;;;;;;;;;10434504;28;20079;-85
2023/09/17 07:12:56;;;;;;;16.60;10.95;;;;;;;;;;10439867;28;20029;-86
2023/09/17 07:18:10;;;;;;;15.60;10.32;;;;;;;;;;10448203;28;20469;-82
2023/09/17 07:23:12;;;;;;;11.55;8.68;;;;;;;;;;10428245;28;20119;-81
2023/09/17 07:28:13;;;;;;;13.35;9.95;;;;;;;;;;10429683;28;20409;-82
2023/09/17 07:33:14;;;;;;;12.65;9.50;;;;;;;;;;10455911;28;20067;-83
2023/09/17 07:38:15;;;;;;;11.73;8.70;;;;;;;;;;10428065;28;20029;-82
2023/09/17 07:43:16;;;;;;;10.55;7.82;;;;;;;;;;10430349;28;20033;-82
2023/09/17 07:48:18;;;;;;;11.30;8.32;;;;;;;;;;10460469;28;20031;-83
2023/09/17 07:53:19;;;;;;;11.25;7.53;;;;;;;;;;10447367;28;20031;-83
2023/09/17 07:58:20;;;;;;;14.10;7.97;;;;;;;;;;10446339;28;20033;-82
2023/09/17 08:03:21;;;;;;;11.85;7.80;;;;;;;;;;10467784;28;20059;-82
2023/09/17 08:08:56;;;;;;;14.82;8.32;;;;;;;;;;10476407;28;20024;-85
2023/09/17 08:13:58;;;;;;;12.85;8.77;;;;;;;;;;10468745;28;20490;-81
2023/09/17 08:18:59;;;;;;;12.23;8.45;;;;;;;;;;10486780;28;20388;-82
2023/09/17 08:24:00;;;;;;;10.93;8.27;;;;;;;;;;10486552;28;20089;-82
2023/09/17 08:29:04;;;;;;;11.18;8.70;;;;;;;;;;10485500;28;20479;-85
2023/09/17 08:34:06;;;;;;;10.55;8.07;;;;;;;;;;10486866;28;20056;-83
2023/09/17 08:39:07;;;;;;;12.77;8.50;;;;;;;;;;10457015;28;20035;-83
2023/09/17 08:44:08;;;;;;;10.82;7.80;;;;;;;;;;10479986;28;20040;-82
2023/09/17 08:49:10;;;;;;;11.65;7.63;;;;;;;;;;10484216;28;20020;-85
2023/09/17 08:54:14;;;;;;;9.45;6.93;;;;;;;;;;10484426;28;20044;-85
2023/09/17 08:59:36;;;;;;;11.32;7.88;;;;;;;;;;10464084;28;20078;-83
2023/09/17 09:04:37;;;;;;;9.07;6.32;;;;;;;;;;10466164;28;20049;-83
2023/09/17 09:09:40;;;;;;;6.35;5.38;;;;;;;;;;10464605;28;20361;-85
2023/09/17 09:14:41;;;;;;;8.75;5.60;;;;;;;;;;10479917;28;20029;-84
2023/09/17 09:19:42;;;;;;;6.60;5.82;;;;;;;;;;10475340;28;20032;-85
2023/09/17 09:24:47;;;;;;;5.90;5.00;;;;;;;;;;10481398;28;20511;-85
2023/09/17 09:29:48;;;;;;;5.72;5.10;;;;;;;;;;10474859;28;20040;-85
2023/09/17 09:34:51;;;;;;;6.25;4.63;;;;;;;;;;10484053;28;20039;-84
2023/09/17 09:39:52;;;;;;;6.95;4.90;;;;;;;;;;10478808;28;20037;-84
2023/09/17 09:44:54;;;;;;;7.93;5.22;;;;;;;;;;10482007;28;20032;-85
2023/09/17 09:49:56;;;;;;;13.70;9.52;;;;;;;;;;10479867;28;20032;-86
2023/09/17 09:54:58;;;;;;;7.75;4.82;;;;;;;;;;10484498;28;20024;-84
2023/09/17 09:59:59;;;;;;;5.95;4.70;;;;;;;;;;10471088;28;20058;-86
2023/09/17 10:05:01;;;;;;;5.13;4.63;;;;;;;;;;10486724;28;20054;-84
2023/09/17 10:10:02;;;;;;;6.78;4.15;;;;;;;;;;10494369;28;20104;-83
2023/09/17 10:15:04;;;;;;;6.60;3.90;;;;;;;;;;10492859;28;20120;-80
2023/09/17 10:20:06;;;;;;;5.18;3.78;;;;;;;;;;10490905;28;20036;-85
2023/09/17 10:25:09;;;;;;;5.53;4.53;;;;;;;;;;10478440;28;20037;-85
2023/09/17 10:30:13;;;;;;;6.78;3.85;;;;;;;;;;10492503;28;20623;-84
2023/09/17 10:35:17;;;;;;;5.47;4.13;;;;;;;;;;10493487;28;20027;-85
2023/09/17 10:40:18;;;;;;;5.22;4.10;;;;;;;;;;10492359;28;20115;-85
2023/09/17 10:45:19;;;;;;;4.72;3.40;;;;;;;;;;10491706;28;20123;-89
2023/09/17 10:50:20;;;;;;;5.75;3.08;;;;;;;;;;10469176;28;20418;-88
2023/09/17 10:55:22;;;;;;;5.32;4.07;;;;;;;;;;10490361;28;20028;-88
2023/09/17 11:00:24;;;;;;;5.65;3.03;;;;;;;;;;10471111;28;20043;-85
2023/09/17 11:05:26;;;;;;;3.70;2.85;;;;;;;;;;10478090;28;20202;-86
2023/09/17 11:10:45;;;;;;;3.40;3.10;;;;;;;;;;10472914;28;20396;-85
2023/09/17 11:15:48;;;;;;;4.75;3.58;;;;;;;;;;10462692;28;20691;-85
2023/09/17 11:21:06;;;;;;;3.38;3.00;;;;;;;;;;10481593;28;20040;-85
2023/09/17 11:26:08;;;;;;;3.53;3.22;;;;;;;;;;10478753;28;20021;-80
2023/09/17 11:31:14;;;;;;;3.85;3.03;;;;;;;;;;10465800;28;20031;-81
2023/09/17 11:36:15;;;;;;;3.25;2.85;;;;;;;;;;10479483;28;20082;-85
2023/09/17 11:41:27;;;;;;;3.33;3.03;;;;;;;;;;10483887;28;20147;-85
2023/09/17 11:46:28;;;;;;;6.03;3.38;;;;;;;;;;10483192;28;20088;-85
2023/09/17 11:51:30;;;;;;;6.93;3.55;;;;;;;;;;10465481;28;20379;-82
2023/09/17 11:56:32;;;;;;;4.35;3.38;;;;;;;;;;10477727;28;20043;-85
2023/09/17 12:01:35;;;;;;;3.45;3.15;;;;;;;;;;10455520;28;20041;-82
2023/09/17 12:06:42;;;;;;;3.63;2.80;;;;;;;;;;10460836;28;20409;-82
2023/09/17 12:11:46;;;;;;;3.40;2.70;;;;;;;;;;10456527;28;20060;-84
2023/09/17 12:16:48;;;;;;;3.78;2.97;;;;;;;;;;10467666;28;20028;-84
2023/09/17 12:21:53;;;;;;;3.45;2.83;;;;;;;;;;10484590;28;20028;-87
2023/09/17 12:27:20;;;;;;;3.40;3.10;;;;;;;;;;10480718;28;20093;-83
2023/09/17 12:32:22;;;;;;;3.33;2.80;;;;;;;;;;10482016;28;20470;-81
2023/09/17 12:37:25;;;;;;;3.83;2.88;;;;;;;;;;10481315;28;20020;-84
2023/09/17 12:42:27;;;;;;;4.13;2.78;;;;;;;;;;10474351;28;20041;-83
2023/09/17 12:47:30;;;;;;;3.13;2.80;;;;;;;;;;10476063;28;20051;-83
2023/09/17 12:52:31;;;;;;;3.05;2.50;;;;;;;;;;10474623;28;20435;-84
2023/09/17 12:57:32;;;;;;;2.75;2.50;;;;;;;;;;10475068;28;20042;-84
2023/09/17 13:02:34;;;;;;;4.68;3.03;;;;;;;;;;10476788;28;20144;-84
2023/09/17 13:07:36;;;;;;;3.30;2.83;;;;;;;;;;10452125;28;20399;-84
2023/09/17 13:12:44;;;;;;;4.38;2.80;;;;;;;;;;10483449;28;20032;-84
2023/09/17 13:17:45;;;;;;;4.45;2.85;;;;;;;;;;10482863;28;20032;-84
2023/09/17 13:22:48;;;;;;;3.75;2.90;;;;;;;;;;10479629;28;20029;-86
2023/09/17 13:27:49;;;;;;;3.85;2.83;;;;;;;;;;10478333;28;20032;-84
2023/09/17 13:32:50;;;;;;;4.05;2.70;;;;;;;;;;10483148;28;20583;-83
2023/09/17 13:37:51;;;;;;;3.45;3.15;;;;;;;;;;10472486;28;20037;-85
2023/09/17 13:42:52;;;;;;;3.53;2.90;;;;;;;;;;10464328;28;20040;-82
2023/09/17 13:47:53;;;;;;;4.93;2.45;;;;;;;;;;10481815;28;20111;-83
2023/09/17 13:52:54;;;;;;;3.08;2.47;;;;;;;;;;10481014;28;20082;-88
2023/09/17 13:57:55;;;;;;;2.70;2.50;;;;;;;;;;10474584;28;20040;-83
2023/09/17 14:02:56;;;;;;;5.18;3.03;;;;;;;;;;10456536;28;20056;-88
2023/09/17 14:07:57;;;;;;;4.00;2.92;;;;;;;;;;10464985;28;20409;-83
2023/09/17 14:13:00;;;;;;;5.07;2.85;;;;;;;;;;10465131;28;20480;-83
2023/09/17 14:18:02;;;;;;;3.17;2.67;;;;;;;;;;10464463;28;20033;-84
2023/09/17 14:23:03;;;;;;;3.65;2.53;;;;;;;;;;10463982;28;20036;-83
2023/09/17 14:28:04;;;;;;;5.55;3.00;;;;;;;;;;10463663;28;20032;-83
2023/09/17 14:33:05;;;;;;;3.28;2.97;;;;;;;;;;10474691;28;20519;-85
2023/09/17 14:38:06;;;;;;;3.95;3.00;;;;;;;;;;10460836;28;20029;-83
2023/09/17 14:43:07;;;;;;;2.50;2.30;;;;;;;;;;10452305;28;20542;-82
2023/09/17 14:48:08;;;;;;;3.80;2.42;;;;;;;;;;10472527;28;20034;-85
2023/09/17 14:53:10;;;;;;;2.85;2.65;;;;;;;;;;10475086;28;20785;-86
2023/09/17 14:58:11;;;;;;;5.38;3.10;;;;;;;;;;10484946;28;20028;-83
2023/09/17 15:03:12;;;;;;;3.47;2.40;;;;;;;;;;10467609;28;20076;-86
2023/09/17 15:08:13;;;;;;;2.85;2.53;;;;;;;;;;10446682;28;20021;-84
2023/09/17 15:13:14;;;;;;;3.55;2.42;;;;;;;;;;10445239;28;20469;-87
2023/09/17 15:18:15;;;;;;;4.57;2.90;;;;;;;;;;10448963;28;20048;-82
2023/09/17 15:23:16;;;;;;;3.55;3.10;;;;;;;;;;10446351;28;20554;-82
2023/09/17 15:28:17;;;;;;;4.03;2.97;;;;;;;;;;10445373;28;20052;-85
2023/09/17 15:33:18;;;;;;;4.20;3.55;;;;;;;;;;10454533;28;20059;-81
2023/09/17 15:38:19;;;;;;;3.30;3.00;;;;;;;;;;10449883;28;20055;-80
2023/09/17 15:43:21;;;;;;;5.88;3.58;;;;;;;;;;10448598;28;20045;-83
2023/09/17 15:48:22;;;;;;;4.28;3.75;;;;;;;;;;10434728;28;20041;-82
2023/09/17 15:53:23;;;;;;;7.38;5.82;;;;;;;;;;10459937;28;20484;-84
2023/09/17 15:58:24;;;;;;;6.13;4.60;;;;;;;;;;10444850;28;20423;-84
2023/09/17 16:03:25;;;;;;;5.28;3.97;;;;;;;;;;10452247;28;20086;-80
2023/09/17 16:08:26;;;;;;;10.77;7.50;;;;;;;;;;10484431;28;20021;-84
2023/09/17 16:13:28;;;;;;;4.10;3.70;;;;;;;;;;10487080;28;20032;-87
2023/09/17 16:18:29;;;;;;;5.30;4.68;;;;;;;;;;10467272;28;20055;-86
2023/09/17 16:23:30;;;;;;;10.93;6.78;;;;;;;;;;10485442;28;20055;-84
2023/09/17 16:28:31;;;;;;;6.22;4.63;;;;;;;;;;10483175;28;20919;-85
2023/09/17 16:33:32;;;;;;;7.53;5.43;;;;;;;;;;10456385;28;20040;-83
2023/09/17 16:38:34;;;;;;;5.88;4.75;;;;;;;;;;10484674;28;20028;-83
2023/09/17 16:43:35;;;;;;;6.20;4.40;;;;;;;;;;10478129;28;20036;-83
2023/09/17 16:48:36;;;;;;;7.35;5.72;;;;;;;;;;10460808;28;20024;-83
2023/09/17 16:53:37;;;;;;;9.70;6.50;;;;;;;;;;10483714;28;20048;-85
2023/09/17 16:58:38;;;;;;;7.63;5.90;;;;;;;;;;10483064;28;20473;-89
2023/09/17 17:03:39;;;;;;;6.55;5.38;;;;;;;;;;10473773;28;20060;-86
2023/09/17 17:08:40;;;;;;;4.65;3.80;;;;;;;;;;10464703;28;20781;-88
2023/09/17 17:13:41;;;;;;;4.95;4.40;;;;;;;;;;10479223;28;20039;-87
2023/09/17 17:18:44;;;;;;;5.72;4.65;;;;;;;;;;10480295;28;20032;-83
2023/09/17 17:23:45;;;;;;;6.13;4.57;;;;;;;;;;10477324;28;20078;-83
2023/09/17 17:28:46;;;;;;;4.88;4.15;;;;;;;;;;10478094;28;20033;-84
2023/09/17 17:33:48;;;;;;;5.38;4.20;;;;;;;;;;10474326;28;20407;-86
2023/09/17 17:38:49;;;;;;;6.75;4.97;;;;;;;;;;10482944;28;20036;-84
2023/09/17 17:43:51;;;;;;;7.07;4.93;;;;;;;;;;10481870;28;20484;-83
2023/09/17 17:48:52;;;;;;;6.65;5.40;;;;;;;;;;10464960;28;20042;-83
2023/09/17 17:53:54;;;;;;;10.00;6.40;;;;;;;;;;10477199;28;20029;-84
2023/09/17 17:58:55;;;;;;;7.00;5.30;;;;;;;;;;10463517;28;20029;-83
2023/09/17 18:03:56;;;;;;;7.55;5.43;;;;;;;;;;10469671;28;20057;-84
2023/09/17 18:08:57;;;;;;;5.95;4.65;;;;;;;;;;10472828;28;20029;-84
2023/09/17 18:13:58;;;;;;;8.57;5.20;;;;;;;;;;10470764;28;20025;-85
2023/09/17 18:18:59;;;;;;;6.55;5.03;;;;;;;;;;10475069;28;20031;-84
2023/09/17 18:24:00;;;;;;;8.32;5.50;;;;;;;;;;10478718;28;20788;-86
2023/09/17 18:29:02;;;;;;;8.90;5.85;;;;;;;;;;10462081;28;20037;-83
2023/09/17 18:34:03;;;;;;;8.75;5.78;;;;;;;;;;10456803;28;20033;-84
2023/09/17 18:39:05;;;;;;;6.40;4.88;;;;;;;;;;10480784;28;20035;-84
2023/09/17 18:44:06;;;;;;;6.93;4.57;;;;;;;;;;10474425;28;20041;-84
2023/09/17 18:49:07;;;;;;;7.38;5.10;;;;;;;;;;10471064;28;20025;-85
2023/09/17 18:54:09;;;;;;;8.55;5.15;;;;;;;;;;10485987;28;20025;-85
2023/09/17 18:59:11;;;;;;;7.45;5.22;;;;;;;;;;10481040;28;20063;-82
2023/09/17 19:04:12;;;;;;;5.63;4.85;;;;;;;;;;10478654;28;20055;-83
2023/09/17 19:09:13;;;;;;;6.70;4.88;;;;;;;;;;10488441;28;20056;-83
2023/09/17 19:14:14;;;;;;;6.57;5.45;;;;;;;;;;10471693;28;20036;-83
2023/09/17 19:19:15;;;;;;;6.68;5.63;;;;;;;;;;10488020;28;20589;-83
2023/09/17 19:24:16;;;;;;;15.52;6.70;;;;;;;;;;10486776;28;20384;-84
2023/09/17 19:29:24;;;;;;;8.45;5.90;;;;;;;;;;10466088;28;20040;-86
2023/09/17 19:34:25;;;;;;;8.00;5.95;;;;;;;;;;10484552;28;20024;-86
2023/09/17 19:39:26;;;;;;;9.32;6.95;;;;;;;;;;10467736;28;20086;-84
2023/09/17 19:44:27;;;;;;;6.43;5.53;;;;;;;;;;10482468;28;20097;-84
2023/09/17 19:49:28;;;;;;;7.05;5.85;;;;;;;;;;10465858;28;20365;-84
2023/09/17 19:54:29;;;;;;;7.32;5.88;;;;;;;;;;10487694;28;20025;-85
2023/09/17 19:59:30;;;;;;;9.80;6.30;;;;;;;;;;10468751;28;20028;-84
2023/09/17 20:04:33;;;;;;;9.45;6.45;;;;;;;;;;10483439;28;20147;-84
2023/09/17 20:09:34;;;;;;;9.23;6.47;;;;;;;;;;10485065;28;20387;-85
2023/09/17 20:14:35;;;;;;;10.10;6.45;;;;;;;;;;10461976;28;20531;-84
2023/09/17 20:19:36;;;;;;;9.20;6.17;;;;;;;;;;10486445;28;20044;-86
2023/09/17 20:24:39;;;;;;;8.65;6.30;;;;;;;;;;10485994;28;20036;-87
2023/09/17 20:29:40;;;;;;;10.57;6.25;;;;;;;;;;10460414;28;20036;-83
2023/09/17 20:34:41;;;;;;;8.63;7.00;;;;;;;;;;10481471;28;20032;-84
2023/09/17 20:39:42;;;;;;;8.95;6.78;;;;;;;;;;10451383;28;20048;-85
2023/09/17 20:44:43;;;;;;;11.13;7.05;;;;;;;;;;10460982;28;20037;-86
2023/09/17 20:49:44;;;;;;;10.32;7.43;;;;;;;;;;10457078;28;20577;-87
2023/09/17 20:54:45;;;;;;;11.48;8.15;;;;;;;;;;10445463;28;20036;-86
2023/09/17 20:59:46;;;;;;;11.43;7.38;;;;;;;;;;10457020;28;20066;-84
2023/09/17 21:04:48;;;;;;;11.18;7.45;;;;;;;;;;10447216;28;20596;-84
2023/09/17 21:09:51;;;;;;;9.13;6.88;;;;;;;;;;10460261;28;20039;-85
2023/09/17 21:14:52;;;;;;;9.52;6.50;;;;;;;;;;10469323;28;20063;-84
2023/09/17 21:19:53;;;;;;;9.65;6.82;;;;;;;;;;10470971;28;20030;-83
2023/09/17 21:24:54;;;;;;;7.97;6.15;;;;;;;;;;10471060;28;20598;-84
2023/09/17 21:29:55;;;;;;;9.30;7.55;;;;;;;;;;10482318;28;20078;-84
2023/09/17 21:34:56;;;;;;;11.88;7.70;;;;;;;;;;10459275;28;20036;-84
2023/09/17 21:39:57;;;;;;;9.68;7.15;;;;;;;;;;10464036;28;20040;-86
2023/09/17 21:44:58;;;;;;;7.30;5.72;;;;;;;;;;10474863;28;20029;-82
2023/09/17 21:49:59;;;;;;;11.52;7.57;;;;;;;;;;10460312;28;20591;-83
2023/09/17 21:55:00;;;;;;;11.23;7.32;;;;;;;;;;10465392;28;20041;-88
2023/09/17 22:00:02;;;;;;;13.52;7.57;;;;;;;;;;10483176;28;20037;-84
2023/09/17 22:05:03;;;;;;;11.80;7.88;;;;;;;;;;10479289;28;20044;-84
2023/09/17 22:10:05;;;;;;;12.25;8.60;;;;;;;;;;10466655;28;20066;-84
2023/09/17 22:15:06;;;;;;;9.35;7.65;;;;;;;;;;10464263;28;20048;-84
2023/09/17 22:20:26;;;;;;;13.77;8.88;;;;;;;;;;10489846;28;20033;-86
2023/09/17 22:25:27;;;;;;;11.85;7.70;;;;;;;;;;10478595;28;20114;-87
2023/09/17 22:30:28;;;;;;;10.05;7.15;;;;;;;;;;10468021;28;20036;-84
2023/09/17 22:35:29;;;;;;;10.13;7.95;;;;;;;;;;10488437;28;20067;-86
2023/09/17 22:40:30;;;;;;;11.48;8.57;;;;;;;;;;10490328;28;20035;-85
2023/09/17 22:45:31;;;;;;;10.25;8.20;;;;;;;;;;10489179;28;20047;-85
2023/09/17 22:50:32;;;;;;;10.15;7.72;;;;;;;;;;10490957;28;20506;-84
2023/09/17 22:55:33;;;;;;;13.07;8.57;;;;;;;;;;10483773;28;20044;-85
2023/09/17 23:00:34;;;;;;;15.77;9.50;;;;;;;;;;10489429;28;20040;-84
2023/09/17 23:05:35;;;;;;;12.77;8.00;;;;;;;;;;10488578;28;20052;-84
2023/09/17 23:10:36;;;;;;;10.32;7.78;;;;;;;;;;10486244;28;20435;-84
2023/09/17 23:15:37;;;;;;;12.52;8.93;;;;;;;;;;10471529;28;20031;-86
2023/09/17 23:20:39;;;;;;;11.48;8.05;;;;;;;;;;10484659;28;20525;-84
2023/09/17 23:25:42;;;;;;;10.02;8.48;;;;;;;;;;10471076;28;20161;-88
2023/09/17 23:30:43;;;;;;;13.30;9.10;;;;;;;;;;10489641;28;20036;-84
2023/09/17 23:35:45;;;;;;;13.18;7.50;;;;;;;;;;10480983;28;20479;-90
2023/09/17 23:40:46;;;;;;;9.68;7.80;;;;;;;;;;10488984;28;20028;-84
2023/09/17 23:45:47;;;;;;;9.48;7.50;;;;;;;;;;10487781;28;20438;-83
2023/09/17 23:50:50;;;;;;;11.82;8.70;;;;;;;;;;10471164;28;20085;-85
2023/09/17 23:55:51;;;;;;;12.38;9.82;;;;;;;;;;10488994;28;20043;-86
